Time;durP1;ratioP1;P1;durP2;ratioP2;P2;SDS_P1;SDS_P2;PMS_P1;PMS_P2;Temp;Humidity;BMP_temperature;BMP_pressure;BME280_temperature;BME280_humidity;BME280_pressure;Samples;Min_cycle;Max_cycle;Signal;HPM_P1;HPM_P2
2022/11/19 00:01:13;;;;;;;;;;;9.70;95.70;;;10.15;64.93;97815.03;4936028;28;122823;-72
2022/11/19 00:03:40;;;;;;;;;;;9.70;95.70;;;10.17;65.28;97811.91;4947196;28;120372;-71
2022/11/19 00:06:09;;;;;;;;;;;9.70;95.70;;;10.16;65.15;97808.34;4949181;28;119621;-70
2022/11/19 00:08:36;;;;;;;;;;;9.70;95.70;;;10.16;65.01;97805.59;4949676;28;123793;-70
2022/11/19 00:11:09;;;;;;;;;;;9.70;95.70;;;10.15;64.90;97815.03;4949918;28;124086;-71
2022/11/19 00:13:36;;;;;;;;;;;9.70;95.70;;;10.14;64.70;97805.09;4964007;28;119218;-71
2022/11/19 00:16:04;;;;;;;;;;;9.70;95.70;;;10.12;64.88;97806.59;4955298;28;118828;-71
2022/11/19 00:18:30;;;;;;;;;;;9.70;95.70;;;10.12;64.82;97810.16;4973012;28;125276;-71
2022/11/19 00:21:11;;;;;;;;;;;9.70;95.70;;;10.11;64.77;97803.03;4954945;28;124051;-72
2022/11/19 00:23:38;;;;;;;;;;;9.70;95.70;;;10.08;65.11;97809.22;4952369;28;119384;-71
2022/11/19 00:26:06;;;;;;;;;;;9.60;95.70;;;10.06;65.14;97807.94;4964609;28;120840;-72
2022/11/19 00:28:33;;;;;;;;;;;9.60;95.70;;;10.03;64.85;97803.88;4949843;28;124254;-71
2022/11/19 00:31:04;;;;;;;;;;;9.60;95.70;;;10.02;65.25;97801.44;4952199;28;123811;-75
2022/11/19 00:33:30;;;;;;;;;;;9.60;95.70;;;10.02;65.04;97801.44;4953016;28;119294;-71
2022/11/19 00:35:57;;;;;;;;;;;9.60;95.80;;;10.03;65.28;97800.31;4949804;28;118916;-71
2022/11/19 00:38:24;;;;;;;;;;;9.60;95.80;;;10.01;65.31;97797.88;4955066;28;124169;-72
2022/11/19 00:40:50;;;;;;;;;;;9.60;95.80;;;10.03;65.37;97801.13;4949939;28;124217;-71
2022/11/19 00:46:02;;;;;;;;;;;9.60;95.80;;;10.01;65.37;97792.34;4956282;28;119484;-71
2022/11/19 00:48:28;;;;;;;;;;;9.60;95.80;;;10.00;65.38;97801.78;4953544;28;124120;-71
2022/11/19 00:50:55;;;;;;;;;;;9.60;95.90;;;10.02;65.07;97794.00;4948643;28;123472;-71
2022/11/19 00:53:24;;;;;;;;;;;9.60;95.90;;;10.02;65.19;97794.00;4966230;28;119537;-71
2022/11/19 00:55:50;;;;;;;;;;;9.60;95.90;;;10.04;65.29;97788.94;4948911;28;119696;-72
2022/11/19 00:58:18;;;;;;;;;;;9.60;95.90;;;10.04;65.35;97794.44;4970336;28;124122;-71
2022/11/19 01:00:45;;;;;;;;;;;9.60;95.80;;;10.03;65.10;97795.59;4964494;28;124592;-71
2022/11/19 01:03:11;;;;;;;;;;;9.60;95.80;;;10.02;65.17;97787.63;4974252;28;119467;-71
2022/11/19 01:05:37;;;;;;;;;;;9.60;95.80;;;10.01;64.97;97788.78;4980876;28;118155;-72
2022/11/19 01:08:04;;;;;;;;;;;9.60;95.80;;;10.00;64.89;97793.50;4953218;28;123744;-71
2022/11/19 01:10:49;;;;;;;;;;;9.60;95.80;;;10.00;64.83;97795.47;4952341;28;123945;-71
2022/11/19 01:17:17;;;;;;;;;;;9.60;95.80;;;9.94;65.37;97792.09;4960243;28;119309;-71
2022/11/19 01:19:45;;;;;;;;;;;9.60;95.80;;;9.92;65.25;97792.41;4960595;28;124880;-72
2022/11/19 01:22:12;;;;;;;;;;;9.60;95.80;;;9.95;65.51;97801.97;4959443;28;123867;-71
2022/11/19 01:24:58;;;;;;;;;;;9.60;95.80;;;10.01;65.22;97791.56;4956626;28;119344;-71
2022/11/19 01:27:43;;;;;;;;;;;9.60;95.90;;;10.00;64.91;97796.28;4964223;28;118871;-75
2022/11/19 01:30:10;;;;;;;;;;;9.60;95.80;;;10.01;65.04;97806.16;4960123;28;123968;-74
2022/11/19 01:32:37;;;;;;;;;;;9.60;95.80;;;10.03;65.22;97803.06;4965767;28;122811;-71
2022/11/19 01:35:04;;;;;;;;;;;9.60;95.80;;;10.04;65.00;97802.72;4954179;28;119452;-71
2022/11/19 01:37:30;;;;;;;;;;;9.60;95.80;;;10.06;65.28;97805.97;4952109;28;116921;-75
2022/11/19 01:39:56;;;;;;;;;;;9.60;95.80;;;10.08;64.87;97798.16;4958761;28;124490;-74
2022/11/19 01:45:35;;;;;;;;;;;9.70;95.80;;;10.04;64.59;97801.91;4945159;28;121318;-72
2022/11/19 01:48:10;;;;;;;;;;;9.60;95.70;;;10.00;65.01;97807.31;4939540;28;118707;-71
2022/11/19 01:50:44;;;;;;;;;;;9.60;95.70;;;9.96;64.61;97803.59;4951679;28;123513;-71
2022/11/19 01:53:12;;;;;;;;;;;9.60;95.60;;;9.92;64.64;97810.94;4953281;28;124138;-71
2022/11/19 01:55:40;;;;;;;;;;;9.60;95.60;;;9.86;65.00;97807.53;4951854;28;119487;-72
2022/11/19 01:58:07;;;;;;;;;;;9.50;95.60;;;9.83;64.47;97810.13;4952623;28;118459;-72
2022/11/19 02:00:34;;;;;;;;;;;9.50;95.60;;;9.81;65.12;97809.69;4978629;28;124294;-71
2022/11/19 02:03:00;;;;;;;;;;;9.50;95.60;;;9.80;64.62;97808.84;4962680;28;124035;-73
2022/11/19 02:05:27;;;;;;;;;;;9.40;95.60;;;9.82;64.88;97822.31;4960846;28;119513;-72
2022/11/19 02:07:55;;;;;;;;;;;9.40;95.60;;;9.81;64.62;97809.69;4969849;28;117995;-71
2022/11/19 02:10:28;;;;;;;;;;;9.40;95.60;;;9.79;65.01;97818.28;4953152;28;124782;-71
2022/11/19 02:12:59;;;;;;;;;;;9.40;95.60;;;9.78;65.25;97818.59;4958540;28;124077;-71
2022/11/19 02:15:44;;;;;;;;;;;9.40;95.60;;;9.81;64.99;97827.03;4961380;28;119281;-71
2022/11/19 02:18:45;;;;;;;;;;;9.40;95.70;;;9.85;64.74;97827.19;4976920;28;118020;-71
2022/11/19 02:21:18;;;;;;;;;;;9.40;95.70;;;9.85;64.73;97816.13;4968985;28;123881;-71
2022/11/19 02:24:13;;;;;;;;;;;9.40;95.70;;;9.88;64.75;97809.97;4934863;28;124013;-71
2022/11/19 02:27:01;;;;;;;;;;;9.50;95.70;;;9.87;64.59;97809.16;4969793;28;120165;-71
2022/11/19 02:29:28;;;;;;;;;;;9.40;95.70;;;9.86;65.19;97815.00;4952100;28;118720;-71
2022/11/19 02:32:14;;;;;;;;;;;9.40;95.70;;;9.87;64.87;97808.34;4951166;28;124430;-71
2022/11/19 02:34:56;;;;;;;;;;;10.90;95.90;;;9.86;65.16;97815.00;4950114;28;124623;-72
2022/11/19 02:37:59;;;;;;;;;;;9.40;95.70;;;9.85;65.05;97822.47;4963537;28;120275;-71
2022/11/19 02:40:35;;;;;;;;;;;9.40;95.70;;;9.87;65.17;97825.72;4959098;28;119561;-72
2022/11/19 02:43:35;;;;;;;;;;;9.40;95.70;;;9.89;65.24;97828.16;4972634;28;124017;-72
2022/11/19 02:46:09;;;;;;;;;;;9.50;95.80;;;9.91;64.99;97809.28;4975920;28;123160;-72
2022/11/19 02:48:41;;;;;;;;;;;9.50;95.80;;;9.92;64.90;97819.19;4964199;28;119473;-72
2022/11/19 02:51:08;;;;;;;;;;;9.50;95.80;;;9.92;64.80;97810.94;4969467;28;119212;-72
2022/11/19 02:53:34;;;;;;;;;;;9.50;95.80;;;9.93;65.03;97818.03;4953875;28;124211;-71
2022/11/19 02:56:16;;;;;;;;;;;9.50;95.80;;;9.94;64.82;97826.00;4953666;28;124030;-71
2022/11/19 03:04:28;;;;;;;;;;;9.50;95.80;;;9.92;65.26;97827.47;4950367;28;124990;-72
2022/11/19 03:07:04;;;;;;;;;;;9.50;95.80;;;9.92;64.90;97827.47;4955395;28;123768;-73
2022/11/19 03:09:33;;;;;;;;;;;9.50;95.90;;;9.91;65.20;97831.34;4955978;28;119821;-72
2022/11/19 03:12:21;;;;;;;;;;;9.50;95.80;;;9.95;65.09;97833.13;4967821;28;118208;-72
2022/11/19 03:18:10;;;;;;;;;;;8.20;95.40;;;10.02;65.46;97832.63;4966599;28;124709;-72
2022/11/19 03:20:41;;;;;;;;;;;9.60;96.00;;;10.06;65.30;97839.09;4956439;28;119398;-71
2022/11/19 03:23:21;;;;;;;;;;;9.60;96.00;;;10.10;64.99;97837.28;4925881;28;117749;-71
2022/11/19 03:25:54;;;;;;;;;;;9.60;96.00;;;10.12;64.76;97834.19;4961812;28;124102;-72
2022/11/19 03:28:24;;;;;;;;;;;9.60;96.00;;;10.16;65.15;97835.16;4944884;28;123833;-72
2022/11/19 03:30:51;;;;;;;;;;;9.70;96.00;;;10.17;64.69;97840.31;4964218;28;119445;-71
2022/11/19 03:33:22;;;;;;;;;;;9.70;96.00;;;10.20;64.50;97836.09;4935075;28;119445;-72
2022/11/19 03:36:00;;;;;;;;;;;9.70;96.00;;;10.24;64.44;97833.47;4952829;28;124185;-72
2022/11/19 03:38:30;;;;;;;;;;;9.70;96.00;;;10.24;64.75;97839.00;4957421;28;124326;-72
2022/11/19 03:40:56;;;;;;;;;;;9.70;95.90;;;10.25;64.78;97829.56;4946533;28;119644;-72
2022/11/19 03:43:26;;;;;;;;;;;9.70;95.90;;;10.28;64.63;97839.97;4948399;28;118902;-71
2022/11/19 03:45:56;;;;;;;;;;;9.70;95.90;;;10.28;64.60;97839.97;4957769;28;124247;-72
2022/11/19 03:48:22;;;;;;;;;;;9.80;96.00;;;10.30;64.69;97843.22;4948518;28;123984;-74
2022/11/19 03:51:03;;;;;;;;;;;9.80;96.00;;;10.30;64.76;97854.25;4956024;28;120308;-72
2022/11/19 03:53:29;;;;;;;;;;;9.80;95.70;;;10.25;64.87;97846.94;4962326;28;118708;-72
2022/11/19 03:56:01;;;;;;;;;;;10.70;95.80;;;10.22;64.65;97855.09;4949052;28;125126;-72
2022/11/19 03:58:28;;;;;;;;;;;9.70;95.80;;;10.16;64.38;97860.78;4975499;28;124049;-72
2022/11/19 04:00:55;;;;;;;;;;;9.70;95.80;;;10.13;64.67;97855.13;4967045;28;118778;-72
2022/11/19 04:03:21;;;;;;;;;;;9.70;95.80;;;10.13;64.86;97871.69;4955135;28;118833;-72
2022/11/19 04:05:47;;;;;;;;;;;9.70;95.80;;;10.15;64.89;97858.34;4952921;28;124311;-72
2022/11/19 04:08:13;;;;;;;;;;;9.70;95.80;;;10.16;64.73;97860.00;4955504;28;122383;-72
2022/11/19 04:10:40;;;;;;;;;;;9.70;95.80;;;10.16;64.96;97852.50;4952682;28;119351;-72
2022/11/19 04:13:06;;;;;;;;;;;9.70;95.80;;;10.16;64.51;97863.56;4955367;28;118788;-72
2022/11/19 04:15:32;;;;;;;;;;;9.70;95.80;;;10.17;64.88;97856.88;4970950;28;123894;-72
2022/11/19 04:17:59;;;;;;;;;;;9.70;95.80;;;10.16;64.69;97851.72;4973296;28;123793;-72
2022/11/19 04:20:25;;;;;;;;;;;9.70;95.80;;;10.15;64.63;97864.72;4971077;28;120405;-72
2022/11/19 04:22:51;;;;;;;;;;;9.70;95.80;;;10.14;64.98;97851.22;4973988;28;119669;-72
2022/11/19 04:25:18;;;;;;;;;;;9.70;95.80;;;10.14;64.84;97852.03;4967778;28;123682;-72
2022/11/19 04:27:45;;;;;;;;;;;9.70;95.80;;;10.14;65.17;97857.56;4980399;28;123534;-72
2022/11/19 04:30:12;;;;;;;;;;;9.70;95.90;;;10.15;65.25;97850.06;4965253;28;119567;-72
2022/11/19 04:32:39;;;;;;;;;;;9.70;95.90;;;10.15;65.07;97850.91;4968701;28;118860;-72
2022/11/19 04:35:06;;;;;;;;;;;9.70;95.90;;;10.18;64.95;97849.41;4968661;28;124122;-72
2022/11/19 04:37:32;;;;;;;;;;;9.70;96.00;;;10.20;64.91;97855.41;4950906;28;122862;-72
2022/11/19 04:39:58;;;;;;;;;;;9.70;96.00;;;10.22;64.79;97855.09;4984212;28;119612;-72
2022/11/19 04:42:25;;;;;;;;;;;9.70;96.00;;;10.23;65.16;97848.41;4980832;28;118685;-72
2022/11/19 04:44:51;;;;;;;;;;;9.80;96.00;;;10.26;65.08;97858.78;4978047;28;124403;-72
2022/11/19 04:47:17;;;;;;;;;;;9.80;96.00;;;10.26;65.24;97848.56;4958030;28;123702;-72
2022/11/19 04:49:44;;;;;;;;;;;9.80;96.00;;;10.29;65.17;97861.72;4955871;28;120069;-72
2022/11/19 04:52:11;;;;;;;;;;;9.80;96.00;;;10.28;65.06;97862.84;4961896;28;119005;-72
2022/11/19 04:54:38;;;;;;;;;;;9.80;96.00;;;10.27;64.68;97860.41;4950953;28;124651;-72
2022/11/19 04:57:04;;;;;;;;;;;9.80;96.00;;;10.25;65.28;97863.50;4949632;28;123480;-72
2022/11/19 04:59:30;;;;;;;;;;;9.80;96.00;;;10.26;64.78;97865.13;4974880;28;119478;-72
2022/11/19 05:01:56;;;;;;;;;;;9.80;96.00;;;10.27;65.00;97866.78;4951139;28;120883;-72
2022/11/19 05:04:23;;;;;;;;;;;9.80;96.00;;;10.26;65.26;97867.06;4961772;28;124096;-73
2022/11/19 05:06:49;;;;;;;;;;;9.80;95.90;;;10.24;64.77;97861.88;4950823;28;124046;-72
2022/11/19 05:09:15;;;;;;;;;;;9.80;96.00;;;10.23;65.08;97862.22;4968444;28;119293;-72
2022/11/19 05:11:42;;;;;;;;;;;9.80;96.00;;;10.21;65.12;97864.50;4950862;28;119865;-72
2022/11/19 05:14:08;;;;;;;;;;;9.80;96.00;;;10.21;64.95;97867.25;4925699;28;123140;-72
2022/11/19 05:16:34;;;;;;;;;;;9.80;96.00;;;10.22;64.84;97858.66;4925789;28;123890;-72
2022/11/19 05:19:01;;;;;;;;;;;9.80;96.10;;;10.22;65.26;97864.16;4926123;28;119877;-72
2022/11/19 05:21:27;;;;;;;;;;;9.80;96.10;;;10.23;65.24;97860.25;4926641;28;118559;-72
2022/11/19 05:23:54;;;;;;;;;;;9.80;96.10;;;10.22;65.34;97864.16;4926420;28;124232;-72
2022/11/19 05:26:20;;;;;;;;;;;9.80;96.10;;;10.24;65.34;97866.59;4923893;28;124386;-72
2022/11/19 05:28:47;;;;;;;;;;;9.80;96.10;;;10.24;65.07;97861.88;4925277;28;118989;-74
2022/11/19 05:31:13;;;;;;;;;;;9.80;96.10;;;10.23;65.07;97856.69;4923599;28;118966;-72
2022/11/19 05:33:39;;;;;;;;;;;9.80;96.10;;;10.23;65.32;97862.22;4944292;28;123623;-72
2022/11/19 05:36:06;;;;;;;;;;;9.80;96.10;;;10.23;65.42;97857.50;4920410;28;123190;-72
2022/11/19 05:38:36;;;;;;;;;;;9.80;96.10;;;10.25;65.38;97862.69;4915581;28;119083;-72
2022/11/19 05:41:02;;;;;;;;;;;9.80;96.10;;;10.27;65.25;97860.41;4946939;28;118069;-69
2022/11/19 05:43:28;;;;;;;;;;;9.80;96.10;;;10.30;65.30;97859.78;4908996;28;124663;-72
2022/11/19 05:45:58;;;;;;;;;;;9.80;96.20;;;10.33;65.51;97862.66;4968452;28;123202;-70
2022/11/19 05:48:28;;;;;;;;;;;9.90;96.20;;;10.33;65.20;97862.66;4957585;28;119246;-72
2022/11/19 05:50:55;;;;;;;;;;;9.90;96.20;;;10.34;65.18;97860.72;4971873;28;118533;-72
2022/11/19 05:53:21;;;;;;;;;;;9.90;96.20;;;10.34;64.98;97863.47;4960811;28;124536;-71
2022/11/19 05:55:47;;;;;;;;;;;9.90;96.20;;;10.31;64.92;97864.16;4948882;28;124938;-71
2022/11/19 05:58:14;;;;;;;;;;;9.80;96.10;;;10.27;65.14;97857.66;4945273;28;120286;-72
2022/11/19 06:00:40;;;;;;;;;;;9.80;96.10;;;10.24;65.45;97861.09;4947253;28;118903;-72
2022/11/19 06:03:07;;;;;;;;;;;9.80;96.10;;;10.24;65.21;97869.38;4943071;28;124150;-71
2022/11/19 06:05:34;;;;;;;;;;;9.80;96.20;;;10.23;65.25;97867.72;4963236;28;123311;-71
2022/11/19 06:08:00;;;;;;;;;;;9.80;96.20;;;10.22;65.54;97869.69;4940738;28;118524;-72
2022/11/19 06:10:26;;;;;;;;;;;9.80;96.20;;;10.21;65.54;97872.78;4954132;28;118467;-71
2022/11/19 06:12:53;;;;;;;;;;;9.80;96.20;;;10.16;65.57;97877.34;4953641;28;124133;-72
2022/11/19 06:15:19;;;;;;;;;;;9.80;96.20;;;10.14;65.38;97874.09;4945866;28;123119;-72
2022/11/19 06:17:45;;;;;;;;;;;9.80;96.20;;;10.11;65.56;97877.53;4959524;28;119731;-72
2022/11/19 06:20:12;;;;;;;;;;;9.70;96.10;;;10.10;65.33;97886.13;4950765;28;118687;-71
2022/11/19 06:22:40;;;;;;;;;;;9.70;96.20;;;10.09;65.57;97887.28;4949422;28;124400;-72
2022/11/19 06:25:07;;;;;;;;;;;9.70;96.20;;;10.10;65.82;97886.13;4958669;28;124413;-71
2022/11/19 06:27:33;;;;;;;;;;;9.70;96.20;;;10.14;65.45;97887.91;4951701;28;118618;-71
2022/11/19 06:30:00;;;;;;;;;;;9.70;96.30;;;10.17;65.74;97894.72;4962870;28;118812;-71
2022/11/19 06:32:27;;;;;;;;;;;9.80;96.30;;;10.22;65.60;97890.97;4970237;28;123608;-71
2022/11/19 06:34:53;;;;;;;;;;;9.80;96.30;;;10.27;65.53;97899.06;4961759;28;124710;-71
2022/11/19 06:37:20;;;;;;;;;;;9.80;96.30;;;10.30;65.66;97887.38;4949960;28;119126;-71
2022/11/19 06:39:46;;;;;;;;;;;9.80;96.30;;;10.32;65.32;97898.91;4954605;28;119291;-71
2022/11/19 06:44:57;;;;;;;;;;;9.90;96.30;;;10.35;65.60;97904.56;4941502;28;124152;-71
2022/11/19 06:47:23;;;;;;;;;;;9.80;96.30;;;10.36;65.35;97910.88;4935940;28;120440;-71
2022/11/19 06:49:50;;;;;;;;;;;11.40;96.50;;;10.37;65.60;97915.28;4946034;28;119192;-71
2022/11/19 06:52:16;;;;;;;;;;;9.90;96.30;;;10.36;65.43;97914.47;4944129;28;123199;-71
2022/11/19 06:54:42;;;;;;;;;;;9.90;96.30;;;10.33;65.07;97919.84;4935914;28;124187;-72
2022/11/19 06:57:09;;;;;;;;;;;9.90;96.30;;;10.31;65.53;97919.38;4955970;28;119334;-72
2022/11/19 06:59:37;;;;;;;;;;;9.90;96.30;;;10.29;65.26;97929.91;4934861;28;118537;-72
2022/11/19 07:02:04;;;;;;;;;;;9.80;96.20;;;10.27;65.41;97927.50;4954009;28;124109;-72
2022/11/19 07:04:31;;;;;;;;;;;9.80;96.20;;;10.25;65.34;97924.22;4955957;28;124574;-71
2022/11/19 07:06:57;;;;;;;;;;;9.80;96.20;;;10.25;65.51;97928.94;4948701;28;119787;-72
2022/11/19 07:09:23;;;;;;;;;;;9.80;96.20;;;10.26;65.64;97927.78;4937366;28;118793;-71
2022/11/19 07:11:50;;;;;;;;;;;9.80;96.30;;;10.27;65.42;97926.69;4930170;28;124509;-71
2022/11/19 07:14:16;;;;;;;;;;;9.80;96.30;;;10.29;65.42;97932.69;4951997;28;123177;-71
2022/11/19 07:16:42;;;;;;;;;;;9.80;96.30;;;10.29;65.57;97935.44;4942883;28;118448;-72
2022/11/19 07:19:09;;;;;;;;;;;9.70;96.20;;;10.30;65.33;97934.31;4941404;28;117639;-72
2022/11/19 07:21:35;;;;;;;;;;;9.90;96.30;;;10.30;65.47;97942.59;4943258;28;124462;-71
2022/11/19 07:24:04;;;;;;;;;;;9.80;96.30;;;10.30;65.71;97934.31;4922351;28;123978;-71
2022/11/19 07:26:32;;;;;;;;;;;9.80;96.30;;;10.28;65.83;97934.63;4935723;28;119252;-72
2022/11/19 07:29:03;;;;;;;;;;;9.80;96.30;;;10.31;65.21;97938.69;4942553;28;118716;-71
2022/11/19 07:31:30;;;;;;;;;;;9.90;96.30;;;10.31;65.38;97941.44;4944334;28;123924;-72
2022/11/19 07:33:56;;;;;;;;;;;9.80;96.30;;;10.31;65.57;97938.69;4936538;28;124546;-71
2022/11/19 07:36:22;;;;;;;;;;;9.90;96.30;;;10.30;65.26;97948.13;4944000;28;120900;-70
2022/11/19 07:38:51;;;;;;;;;;;9.80;96.60;;;10.30;65.22;97945.38;4947959;28;119332;-71
2022/11/19 07:44:03;;;;;;;;;;;9.80;96.30;;;10.26;65.29;97960.94;4940461;28;124634;-72
2022/11/19 07:46:29;;;;;;;;;;;9.80;96.30;;;10.27;65.28;97959.81;4965192;28;119939;-72
2022/11/19 07:48:57;;;;;;;;;;;9.80;96.30;;;10.28;65.54;97961.44;4971029;28;118461;-71
2022/11/19 07:51:24;;;;;;;;;;;9.80;96.30;;;10.28;65.11;97965.00;4972708;28;124097;-71
2022/11/19 07:53:51;;;;;;;;;;;9.80;96.30;;;10.28;65.53;97961.44;4970694;28;124141;-72
2022/11/19 07:56:18;;;;;;;;;;;9.80;96.30;;;10.30;65.41;97961.94;4970280;28;119865;-72
2022/11/19 07:58:44;;;;;;;;;;;9.90;96.30;;;10.30;65.39;97961.94;4969707;28;117626;-71
2022/11/19 08:01:18;;;;;;;;;;;9.80;96.20;;;10.32;65.17;97951.38;4978654;28;123654;-72
2022/11/19 08:03:46;;;;;;;;;;;9.80;96.20;;;10.33;65.42;97964.03;4951393;28;124204;-71
2022/11/19 08:06:14;;;;;;;;;;;9.90;96.30;;;10.37;64.96;97954.75;4935804;28;118500;-72
2022/11/19 08:08:42;;;;;;;;;;;9.90;96.30;;;10.38;65.27;97956.34;4949361;28;118897;-72
2022/11/19 08:11:10;;;;;;;;;;;9.90;96.20;;;10.41;64.90;97956.84;4945092;28;124081;-70
2022/11/19 08:13:38;;;;;;;;;;;9.90;96.20;;;10.41;65.13;97954.88;4946849;28;123711;-71
2022/11/19 08:16:10;;;;;;;;;;;10.00;95.80;;;10.42;64.83;97953.72;4968212;28;118680;-71
2022/11/19 08:18:37;;;;;;;;;;;9.90;96.10;;;10.40;65.05;97958.81;4967191;28;118846;-72
2022/11/19 08:21:05;;;;;;;;;;;9.90;96.10;;;10.40;64.71;97958.81;4966085;28;123857;-71
2022/11/19 08:23:31;;;;;;;;;;;9.90;96.10;;;10.42;64.84;97959.25;4950919;28;123402;-71
2022/11/19 08:25:58;;;;;;;;;;;10.00;95.60;;;10.45;64.70;97955.03;4951701;28;119867;-71
2022/11/19 08:28:25;;;;;;;;;;;10.00;95.60;;;10.48;64.78;97963.47;4948911;28;119822;-71
2022/11/19 08:30:51;;;;;;;;;;;10.00;95.60;;;10.51;65.09;97968.34;4965166;28;124768;-71
2022/11/19 08:33:18;;;;;;;;;;;10.00;95.60;;;10.56;64.70;97965.38;4966979;28;123745;-71
2022/11/19 08:35:44;;;;;;;;;;;10.10;95.60;;;10.61;64.46;97979.00;4969210;28;119646;-71
2022/11/19 08:38:10;;;;;;;;;;;10.10;95.60;;;10.65;64.74;97970.03;4967924;28;118734;-71
2022/11/19 08:40:37;;;;;;;;;;;10.20;95.60;;;10.69;64.84;97974.56;4966946;28;124149;-71
2022/11/19 08:43:05;;;;;;;;;;;10.20;95.60;;;10.73;64.75;97983.00;4967611;28;124293;-70
2022/11/19 08:45:37;;;;;;;;;;;10.20;95.60;;;10.78;64.38;97985.56;4955651;28;119784;-71
2022/11/19 08:48:05;;;;;;;;;;;10.20;95.60;;;10.80;64.15;97980.50;4965072;28;118245;-71
2022/11/19 08:50:32;;;;;;;;;;;10.30;95.60;;;10.81;64.08;97982.16;4948403;28;123461;-71
2022/11/19 08:53:00;;;;;;;;;;;10.30;95.50;;;10.82;64.27;97986.50;4969119;28;122834;-71
2022/11/19 08:55:28;;;;;;;;;;;10.30;95.50;;;10.81;64.01;97979.38;4948301;28;118311;-71
2022/11/19 08:58:02;;;;;;;;;;;10.30;95.40;;;10.82;63.69;97987.31;4947706;28;118734;-71
2022/11/19 09:00:29;;;;;;;;;;;10.30;95.30;;;10.82;63.81;97987.31;4947069;28;124217;-71
2022/11/19 09:02:55;;;;;;;;;;;10.40;95.40;;;10.87;64.13;97988.28;4947485;28;123091;-71
2022/11/19 09:05:21;;;;;;;;;;;10.40;95.40;;;10.91;63.70;97998.34;4947711;28;119710;-71
2022/11/19 09:07:49;;;;;;;;;;;10.40;95.30;;;10.92;63.40;98002.72;4947285;28;118236;-72
2022/11/19 09:10:16;;;;;;;;;;;10.40;95.20;;;10.91;63.33;97995.59;4963367;28;124137;-71
2022/11/19 09:12:43;;;;;;;;;;;10.40;95.10;;;10.91;63.86;97998.34;4964563;28;124450;-71
2022/11/19 09:15:09;;;;;;;;;;;10.40;95.10;;;10.91;63.89;98001.09;4949525;28;119492;-71
2022/11/19 09:17:37;;;;;;;;;;;10.40;95.10;;;10.94;63.95;97997.66;4965895;28;119420;-72
2022/11/19 09:20:04;;;;;;;;;;;10.50;95.20;;;11.00;63.68;98009.34;4945613;28;124340;-71
2022/11/19 09:22:30;;;;;;;;;;;10.50;95.20;;;11.03;63.35;98009.47;4949633;28;123243;-72
2022/11/19 09:24:56;;;;;;;;;;;10.50;95.20;;;11.08;63.50;98008.47;4947252;28;120553;-70
2022/11/19 09:27:23;;;;;;;;;;;10.60;95.20;;;11.13;63.30;98013.00;4946277;28;118507;-70
2022/11/19 09:29:49;;;;;;;;;;;10.60;95.10;;;11.20;63.54;98016.03;4947489;28;124354;-71
2022/11/19 09:32:16;;;;;;;;;;;10.70;95.20;;;11.25;63.55;98018.59;4947401;28;123890;-71
2022/11/19 09:34:42;;;;;;;;;;;10.70;95.10;;;11.26;63.22;98017.47;4951757;28;120112;-71
2022/11/19 09:37:10;;;;;;;;;;;10.70;95.00;;;11.25;62.91;98016.63;4976266;28;118918;-72
2022/11/19 09:39:36;;;;;;;;;;;10.70;94.90;;;11.25;62.54;98015.84;4950247;28;125085;-71
2022/11/19 09:42:20;;;;;;;;;;;10.70;94.80;;;11.24;62.73;98014.22;4963887;28;124720;-72
2022/11/19 09:44:58;;;;;;;;;;;10.70;94.80;;;11.24;62.56;98020.56;4957367;28;119695;-72
2022/11/19 09:48:01;;;;;;;;;;;10.80;94.80;;;11.22;62.50;98017.31;4944652;28;118957;-70
2022/11/19 09:50:34;;;;;;;;;;;10.70;94.60;;;11.21;62.47;98010.19;4967535;28;122459;-71
2022/11/19 09:53:10;;;;;;;;;;;10.80;94.70;;;11.22;62.86;98024.81;4962956;28;124340;-70
2022/11/19 09:55:40;;;;;;;;;;;10.70;94.60;;;11.19;62.25;98022.72;4961843;28;117231;-70
2022/11/19 09:58:17;;;;;;;;;;;10.70;94.50;;;11.17;62.66;98019.47;4930036;28;118808;-70
2022/11/19 10:00:44;;;;;;;;;;;10.70;94.50;;;11.13;62.75;98019.34;4928861;28;124262;-71
2022/11/19 10:03:14;;;;;;;;;;;10.70;94.50;;;11.10;62.46;98013.69;4929152;28;124591;-71
2022/11/19 10:05:40;;;;;;;;;;;10.70;94.50;;;11.11;62.56;98029.09;4952977;28;120353;-71
2022/11/19 10:08:12;;;;;;;;;;;10.60;94.50;;;11.09;62.59;98023.09;4966269;28;118729;-71
2022/11/19 10:11:03;;;;;;;;;;;10.60;94.40;;;11.06;62.94;98019.84;4945916;28;124989;-71
2022/11/19 10:13:52;;;;;;;;;;;10.60;94.40;;;11.06;62.79;98027.34;4948693;28;123896;-72
2022/11/19 10:16:37;;;;;;;;;;;10.60;94.50;;;11.06;62.31;98019.03;4945580;28;119964;-71
2022/11/19 10:19:17;;;;;;;;;;;10.70;94.40;;;11.03;62.04;98016.97;4948798;28;119590;-71
2022/11/19 10:21:58;;;;;;;;;;;10.60;94.30;;;11.00;62.19;98014.88;4943313;28;124254;-71
2022/11/19 10:24:48;;;;;;;;;;;10.60;94.20;;;10.98;62.26;98015.19;4945705;28;124893;-70
2022/11/19 10:27:31;;;;;;;;;;;10.60;94.20;;;10.98;62.41;98011.63;4960200;28;119445;-71
2022/11/19 10:29:59;;;;;;;;;;;10.60;94.20;;;10.98;62.16;98020.72;4959401;28;118025;-70
2022/11/19 10:32:31;;;;;;;;;;;10.60;94.20;;;11.01;61.79;98017.28;4944354;28;124088;-72
2022/11/19 10:35:05;;;;;;;;;;;10.60;94.00;;;11.03;61.94;98003.13;4923254;28;123622;-71
2022/11/19 10:37:35;;;;;;;;;;;10.60;94.00;;;11.06;61.86;97996.94;4944866;28;119629;-71
2022/11/19 10:40:07;;;;;;;;;;;10.60;94.00;;;11.14;62.06;98003.56;4931261;28;117735;-71
2022/11/19 10:42:36;;;;;;;;;;;10.70;94.10;;;11.17;61.75;97998.16;4944543;28;124974;-71
2022/11/19 10:45:12;;;;;;;;;;;10.70;94.00;;;11.22;61.66;98003.47;4966046;28;124536;-71
2022/11/19 10:47:56;;;;;;;;;;;10.80;94.00;;;11.27;60.93;98008.03;4954813;28;119491;-71
2022/11/19 10:50:24;;;;;;;;;;;10.80;93.80;;;11.27;61.19;98008.81;4904682;28;97735;-71
2022/11/19 10:52:52;;;;;;;;;;;10.80;93.70;;;11.27;61.17;98005.25;4962841;28;124415;-71
2022/11/19 10:55:36;;;;;;;;;;;10.80;93.70;;;11.26;61.18;98006.41;4945410;28;124148;-71
2022/11/19 10:58:21;;;;;;;;;;;10.80;93.70;;;11.25;61.21;98007.53;4961282;28;120457;-71
2022/11/19 11:00:48;;;;;;;;;;;10.80;93.70;;;11.24;61.09;97997.63;4949621;28;120064;-71
2022/11/19 11:03:22;;;;;;;;;;;10.80;93.70;;;11.27;61.29;97992.22;4950967;28;124085;-71
2022/11/19 11:06:01;;;;;;;;;;;10.90;93.80;;;11.31;61.07;97986.84;4961856;28;126079;-71
2022/11/19 11:08:28;;;;;;;;;;;10.90;93.80;;;11.31;61.16;97992.38;4962285;28;119390;-71
2022/11/19 11:10:55;;;;;;;;;;;10.90;93.60;;;11.33;61.05;97994.78;5001548;28;119023;-71
2022/11/19 11:16:16;;;;;;;;;;;10.50;93.40;;;11.32;60.42;97991.22;4971257;28;124758;-71
2022/11/19 11:18:43;;;;;;;;;;;10.90;93.40;;;11.30;60.49;97987.97;4949359;28;119621;-71
2022/11/19 11:21:31;;;;;;;;;;;10.90;93.30;;;11.28;60.20;97987.50;4963775;28;118131;-71
2022/11/19 11:23:58;;;;;;;;;;;10.90;93.30;;;11.28;59.93;97988.34;4968689;28;123152;-71
2022/11/19 11:26:26;;;;;;;;;;;10.90;93.10;;;11.25;59.45;97982.66;4953311;28;123215;-71
2022/11/19 11:28:59;;;;;;;;;;;10.80;92.80;;;11.24;59.32;97981.03;4983439;28;120029;-71
2022/11/19 11:31:39;;;;;;;;;;;10.80;92.60;;;11.23;58.93;97984.94;4967983;28;119250;-71
2022/11/19 11:34:14;;;;;;;;;;;10.80;92.50;;;11.22;59.06;97981.38;4969603;28;123252;-71
2022/11/19 11:36:40;;;;;;;;;;;10.80;92.40;;;11.21;58.72;97988.06;4982972;28;124211;-72
2022/11/19 11:39:23;;;;;;;;;;;10.80;92.30;;;11.20;58.46;97983.69;4954040;28;118685;-69
2022/11/19 11:41:50;;;;;;;;;;;10.80;92.20;;;11.21;58.36;97990.00;4984721;28;118603;-71
2022/11/19 11:44:21;;;;;;;;;;;10.80;92.20;;;11.25;58.62;97988.19;4971109;28;124774;-70
2022/11/19 11:47:12;;;;;;;;;;;10.80;92.20;;;11.31;58.85;97984.09;4970784;28;124283;-69
2022/11/19 11:49:41;;;;;;;;;;;10.90;92.30;;;11.35;58.59;97987.78;4966974;28;120919;-71
2022/11/19 11:52:10;;;;;;;;;;;10.90;92.20;;;11.39;58.00;97985.13;4982985;28;120089;-71
2022/11/19 11:54:38;;;;;;;;;;;11.00;92.10;;;11.41;58.20;97980.88;4966599;28;124177;-71
2022/11/19 11:57:19;;;;;;;;;;;11.00;92.10;;;11.44;58.32;97980.22;4952833;28;124186;-70